Accueil
METAR-TAF:

METAR-TAF

Aéroports :

Fort Richardson, Alaska, États-Unis

latitude: 61-15-45N, longitude: 149-39-17W, altitude: 115 m

Observation

Le bulletin a été fait il y a 17 minutes, à 14:58 UTC
Vent 5 kt de nord-est
Température 12°C
Humidité 76%
Pression 1015 hPa
Visibilité: 14.5 km
Ciel couvert à une hauteur de 12000 ft

METAR: PAFR 201458Z AUTO 05005KT 9SM OVC120 12/08 A2996 RMK AO2 SLP151 T01240076 57015

Heure: 07:15 (15:15 UTC)


TAF: absent

Observations et prévisions météorologiques de plus de 4000 aéroports (messages METAR et TAF).

Les stations disponibles sont représentées par des disques jaunes et rouges sur la carte.

Passer la souris dessus pour voir le nom de la station.

Cliquer dessus pour voir les observations et prévisions météorologiques.

Pour changer de carte: cliquez sur les boutons verts avec une croix noire pour zoomer, sur le bouton vert avec un tiret pour effectuer un zoom arrière, ou sur les flèches vertes pour les cartes adjacentes.


METAR-TAF: